createdAt,value
2023-05-01T00:02:16.023Z,46.90
2023-05-01T00:04:43.487Z,51.97
2023-05-01T00:07:10.848Z,48.30
2023-05-01T00:09:39.051Z,48.47
2023-05-01T00:12:06.356Z,47.93
2023-05-01T00:14:33.610Z,50.97
2023-05-01T00:17:00.908Z,53.53
2023-05-01T00:19:28.169Z,51.17
2023-05-01T00:21:55.666Z,56.50
2023-05-01T00:24:23.458Z,47.77
2023-05-01T00:26:51.417Z,42.87
2023-05-01T00:29:20.930Z,47.53
2023-05-01T00:31:48.311Z,47.70
2023-05-01T00:34:16.017Z,43.83
2023-05-01T00:36:43.490Z,59.57
2023-05-01T00:39:11.577Z,52.90
2023-05-01T00:41:39.037Z,49.47
2023-05-01T00:44:07.739Z,50.43
2023-05-01T00:46:35.834Z,44.07
2023-05-01T00:49:03.717Z,46.50
2023-05-01T00:51:32.349Z,40.80
2023-05-01T00:54:00.530Z,45.07
2023-05-01T00:56:28.715Z,43.33
2023-05-01T00:58:57.106Z,48.73
2023-05-01T01:01:25.168Z,46.90
2023-05-01T01:03:53.655Z,47.70
2023-05-01T01:06:34.029Z,51.57
2023-05-01T01:09:12.367Z,54.30
2023-05-01T01:11:47.074Z,63.70
2023-05-01T01:14:19.157Z,52.63
2023-05-01T01:16:54.374Z,54.60
2023-05-01T01:19:53.647Z,52.90
2023-05-01T01:22:24.540Z,48.63
2023-05-01T01:25:27.402Z,49.93
2023-05-01T01:28:28.915Z,49.97
2023-05-01T01:31:13.796Z,61.20
2023-05-01T01:34:01.782Z,50.73
2023-05-01T01:36:39.213Z,49.23
2023-05-01T01:39:16.446Z,46.30
2023-05-01T01:41:50.147Z,51.67
2023-05-01T01:44:22.792Z,53.13
2023-05-01T01:46:52.868Z,54.53
2023-05-01T01:49:23.264Z,55.40
2023-05-01T01:51:52.652Z,51.87
2023-05-01T01:54:23.437Z,58.47
2023-05-01T01:56:51.787Z,58.33
2023-05-01T01:59:21.443Z,65.93
2023-05-01T02:01:50.344Z,58.20
2023-05-01T02:04:19.292Z,50.23
2023-05-01T02:06:48.758Z,57.67
2023-05-01T02:09:19.152Z,62.63
2023-05-01T02:11:48.194Z,60.60
2023-05-01T02:14:18.139Z,55.67
2023-05-01T02:16:46.943Z,56.07
2023-05-01T02:19:15.371Z,55.03
2023-05-01T02:21:44.876Z,57.90
2023-05-01T02:24:13.708Z,60.87
2023-05-01T02:26:47.232Z,62.73
2023-05-01T02:29:14.589Z,57.20
2023-05-01T02:31:41.981Z,57.60
2023-05-01T02:34:09.315Z,55.30
2023-05-01T02:36:36.759Z,56.83
2023-05-01T02:39:04.597Z,56.63
2023-05-01T02:41:34.794Z,66.07
2023-05-01T02:44:03.888Z,52.90
2023-05-01T02:46:32.910Z,60.60
2023-05-01T02:49:02.390Z,54.83
2023-05-01T02:51:31.399Z,61.83
2023-05-01T02:53:59.810Z,42.80
2023-05-01T02:56:28.055Z,50.13
2023-05-01T02:58:56.511Z,46.77
2023-05-01T03:01:23.880Z,45.07
2023-05-01T03:03:51.517Z,52.43
2023-05-01T03:06:19.074Z,44.20
2023-05-01T03:08:47.165Z,50.37
2023-05-01T03:11:14.619Z,51.70
2023-05-01T03:13:42.040Z,53.60
2023-05-01T03:16:10.263Z,46.60
2023-05-01T03:18:37.879Z,54.63
2023-05-01T03:21:05.578Z,43.50
2023-05-01T03:23:32.845Z,59.13
2023-05-01T03:26:00.144Z,50.53
2023-05-01T03:28:27.411Z,53.63
2023-05-01T03:30:54.659Z,48.83
2023-05-01T03:33:22.578Z,39.97
2023-05-01T03:35:58.719Z,44.50
2023-05-01T03:38:26.530Z,47.70
2023-05-01T03:40:53.850Z,48.57
2023-05-01T03:43:21.210Z,42.50
2023-05-01T03:45:48.478Z,47.43
2023-05-01T03:48:15.786Z,33.47
2023-05-01T03:50:44.004Z,38.40
2023-05-01T03:53:12.355Z,48.13
2023-05-01T03:55:39.685Z,56.43
2023-05-01T03:58:06.956Z,51.53
2023-05-01T04:00:34.500Z,45.70
2023-05-01T04:03:02.043Z,48.37
2023-05-01T04:05:29.933Z,47.23
2023-05-01T04:07:58.086Z,43.20
2023-05-01T04:10:25.729Z,41.80
2023-05-01T04:12:53.001Z,45.33
2023-05-01T04:15:21.921Z,128.83
2023-05-01T04:17:49.667Z,370.60
2023-05-01T04:20:18.779Z,359.90
2023-05-01T04:22:46.603Z,91.77
2023-05-01T04:25:15.545Z,37.83
2023-05-01T04:27:43.132Z,45.30
2023-05-01T04:30:11.202Z,33.70
2023-05-01T04:32:38.581Z,40.22
2023-05-01T04:35:06.715Z,251.77
2023-05-01T04:37:34.971Z,143.80
2023-05-01T04:40:02.734Z,106.47
2023-05-01T04:42:33.786Z,207.97
2023-05-01T04:45:03.328Z,81.70
2023-05-01T04:47:30.717Z,45.43
2023-05-01T04:49:58.128Z,33.07
2023-05-01T04:52:25.578Z,34.07
2023-05-01T04:54:52.898Z,32.93
2023-05-01T04:57:20.173Z,39.70
2023-05-01T04:59:48.108Z,30.40
2023-05-01T05:02:15.676Z,31.77
2023-05-01T05:04:43.013Z,30.07
2023-05-01T05:07:10.299Z,32.47
2023-05-01T05:09:37.629Z,37.90
2023-05-01T05:12:05.271Z,32.07
2023-05-01T05:14:32.578Z,29.60
2023-05-01T05:17:00.578Z,32.37
2023-05-01T05:19:27.855Z,39.17
2023-05-01T05:21:55.093Z,30.57
2023-05-01T05:24:22.308Z,34.20
2023-05-01T05:26:49.946Z,33.13
2023-05-01T05:29:17.409Z,36.00
2023-05-01T05:31:44.830Z,37.63
2023-05-01T05:34:12.825Z,34.47
2023-05-01T05:36:40.387Z,32.60
2023-05-01T05:39:07.816Z,33.43
2023-05-01T05:41:35.141Z,31.73
2023-05-01T05:44:02.417Z,31.70
2023-05-01T05:46:29.797Z,29.57
2023-05-01T05:48:57.116Z,30.70
2023-05-01T05:51:25.059Z,31.53
2023-05-01T05:53:52.378Z,40.80
2023-05-01T05:56:19.645Z,37.57
2023-05-01T05:58:46.911Z,30.73
2023-05-01T06:01:14.947Z,32.80
2023-05-01T06:03:42.420Z,34.13
2023-05-01T06:06:10.286Z,39.63
2023-05-01T06:08:38.859Z,32.90
2023-05-01T06:11:08.540Z,33.10
2023-05-01T06:13:36.264Z,30.50
2023-05-01T06:16:03.961Z,30.20
2023-05-01T06:18:31.380Z,30.57
2023-05-01T06:20:59.295Z,30.30
2023-05-01T06:23:26.649Z,29.67
2023-05-01T06:25:54.866Z,31.80
2023-05-01T06:28:22.152Z,31.07
2023-05-01T06:30:49.393Z,32.83
2023-05-01T06:33:16.710Z,31.67
2023-05-01T06:35:44.141Z,31.10
2023-05-01T06:38:11.428Z,29.30
2023-05-01T06:40:38.664Z,27.83
2023-05-01T06:43:09.081Z,30.40
2023-05-01T06:45:39.043Z,28.30
2023-05-01T06:48:06.447Z,33.40
2023-05-01T06:50:33.726Z,31.70
2023-05-01T06:53:02.075Z,31.00
2023-05-01T06:55:30.862Z,29.17
2023-05-01T06:57:59.765Z,28.07
2023-05-01T07:00:30.580Z,28.77
2023-05-01T07:02:58.140Z,36.50
2023-05-01T07:05:26.138Z,31.03
2023-05-01T07:08:01.319Z,26.50
2023-05-01T07:10:30.000Z,27.53
2023-05-01T07:12:57.395Z,20.87
2023-05-01T07:15:24.635Z,22.27
2023-05-01T07:17:52.663Z,30.97
2023-05-01T07:20:20.076Z,22.03
2023-05-01T07:22:47.349Z,23.00
2023-05-01T07:25:15.066Z,21.53
2023-05-01T07:27:42.371Z,20.63
2023-05-01T07:30:10.827Z,17.67
2023-05-01T07:32:38.185Z,13.90
2023-05-01T07:35:07.276Z,14.20
2023-05-01T07:37:34.536Z,26.67
2023-05-01T07:40:02.097Z,16.80
2023-05-01T07:42:29.440Z,15.70
2023-05-01T07:44:59.723Z,19.77
2023-05-01T07:47:27.230Z,18.07
2023-05-01T07:49:54.575Z,20.17
2023-05-01T07:52:22.586Z,10.73
2023-05-01T07:54:50.878Z,12.37
2023-05-01T07:57:18.262Z,14.67
2023-05-01T07:59:45.740Z,14.00
2023-05-01T08:02:13.389Z,15.00
2023-05-01T08:04:40.829Z,20.47
2023-05-01T08:07:08.150Z,15.70
2023-05-01T08:09:36.035Z,14.17
2023-05-01T08:12:03.593Z,17.30
2023-05-01T08:14:31.231Z,14.93
2023-05-01T08:16:58.560Z,18.77
2023-05-01T08:19:27.266Z,10.33
2023-05-01T08:21:54.736Z,14.03
2023-05-01T08:24:22.039Z,11.53
2023-05-01T08:26:50.671Z,25.27
2023-05-01T08:29:18.098Z,11.90
2023-05-01T08:31:45.980Z,12.67
2023-05-01T08:34:16.566Z,11.90
2023-05-01T08:36:45.152Z,15.00
2023-05-01T08:39:13.500Z,8.10
2023-05-01T08:41:44.035Z,13.77
2023-05-01T08:44:13.552Z,8.13
2023-05-01T08:46:48.853Z,11.70
2023-05-01T08:49:17.992Z,10.50
2023-05-01T08:51:47.019Z,11.93
2023-05-01T08:54:16.530Z,12.83
2023-05-01T08:56:46.383Z,7.77
2023-05-01T08:59:15.033Z,10.93
2023-05-01T09:01:43.854Z,10.30
2023-05-01T09:04:12.552Z,8.60
2023-05-01T09:06:39.972Z,8.10
2023-05-01T09:09:07.538Z,8.10
2023-05-01T09:11:34.855Z,16.60
2023-05-01T09:14:04.682Z,9.37
2023-05-01T09:16:32.928Z,13.67
2023-05-01T09:19:00.486Z,9.07
2023-05-01T09:21:30.889Z,15.93
2023-05-01T09:23:58.152Z,12.13
2023-05-01T09:26:26.160Z,8.97
2023-05-01T09:28:57.337Z,16.30
2023-05-01T09:31:27.759Z,10.93
2023-05-01T09:33:57.474Z,7.80
2023-05-01T09:36:27.653Z,7.33
2023-05-01T09:38:55.274Z,12.17
2023-05-01T09:41:23.198Z,11.53
2023-05-01T09:43:51.355Z,8.57
2023-05-01T09:46:18.866Z,11.27
2023-05-01T09:48:58.359Z,11.60
2023-05-01T09:51:27.199Z,13.33
2023-05-01T09:53:56.296Z,9.77
2023-05-01T09:56:25.872Z,8.23
2023-05-01T09:58:55.033Z,12.10
2023-05-01T10:01:38.936Z,11.90
2023-05-01T10:04:08.241Z,11.80
2023-05-01T10:06:35.961Z,14.63
2023-05-01T10:09:06.152Z,9.73
2023-05-01T10:11:48.087Z,15.50
2023-05-01T10:14:15.610Z,13.20
2023-05-01T10:16:42.953Z,11.70
2023-05-01T10:19:11.936Z,14.10
2023-05-01T10:21:39.273Z,9.50
2023-05-01T10:24:09.086Z,8.30
2023-05-01T10:26:36.761Z,13.30
2023-05-01T10:29:04.768Z,8.30
2023-05-01T10:31:32.843Z,8.00
2023-05-01T10:34:01.200Z,7.00
2023-05-01T10:36:39.553Z,15.90
2023-05-01T10:39:06.921Z,8.17
2023-05-01T10:42:03.893Z,14.07
2023-05-01T10:44:31.977Z,11.03
2023-05-01T10:46:59.351Z,10.40
2023-05-01T10:50:06.406Z,11.10
2023-05-01T10:53:17.337Z,6.90
2023-05-01T10:55:46.127Z,10.53
2023-05-01T10:58:33.977Z,8.17
2023-05-01T11:01:29.065Z,7.87
2023-05-01T11:03:56.833Z,8.03
2023-05-01T11:06:24.581Z,13.13
2023-05-01T11:08:52.968Z,8.20
2023-05-01T11:11:47.246Z,10.10
2023-05-01T11:14:15.098Z,11.73
2023-05-01T11:16:45.182Z,10.63
2023-05-01T11:19:47.763Z,5.97
2023-05-01T11:22:15.365Z,13.13
2023-05-01T11:24:43.506Z,7.33
2023-05-01T11:27:14.225Z,8.10
2023-05-01T11:29:44.341Z,6.67
2023-05-01T11:32:22.234Z,7.70
2023-05-01T11:34:50.854Z,15.00
2023-05-01T11:37:18.659Z,7.33
2023-05-01T11:39:52.998Z,5.27
2023-05-01T11:42:23.140Z,7.90
2023-05-01T11:45:10.181Z,6.37
2023-05-01T11:47:37.771Z,8.07
2023-05-01T11:50:06.670Z,9.33
2023-05-01T11:52:43.336Z,7.40
2023-05-01T11:55:11.560Z,5.83
2023-05-01T11:57:49.141Z,8.80
2023-05-01T12:00:26.587Z,9.10
2023-05-01T12:02:59.077Z,8.00
2023-05-01T12:05:27.649Z,10.60
2023-05-01T12:08:08.934Z,10.57
2023-05-01T12:10:37.632Z,6.77
2023-05-01T12:13:06.127Z,11.47
2023-05-01T12:15:35.982Z,4.50
2023-05-01T12:18:04.154Z,7.17
2023-05-01T12:20:42.145Z,11.80
2023-05-01T12:23:10.991Z,7.20
2023-05-01T12:25:40.133Z,7.50
2023-05-01T12:28:13.407Z,6.17
2023-05-01T12:30:41.393Z,7.40
2023-05-01T12:33:10.665Z,7.30
2023-05-01T12:35:39.517Z,7.40
2023-05-01T12:38:12.428Z,6.83
2023-05-01T12:40:49.467Z,4.63
2023-05-01T12:43:17.062Z,8.47
2023-05-01T12:45:44.395Z,7.03
2023-05-01T12:48:14.665Z,5.90
2023-05-01T12:50:42.463Z,4.50
2023-05-01T12:53:10.444Z,7.80
2023-05-01T12:55:46.520Z,7.70
2023-05-01T12:58:14.266Z,5.80
2023-05-01T13:00:49.418Z,5.10
2023-05-01T13:03:23.588Z,7.67
2023-05-01T13:05:52.485Z,5.40
2023-05-01T13:08:27.486Z,7.37
2023-05-01T13:10:57.319Z,7.97
2023-05-01T13:13:26.412Z,7.47
2023-05-01T13:15:53.895Z,5.00
2023-05-01T13:18:21.513Z,7.30
2023-05-01T13:20:48.869Z,5.10
2023-05-01T13:23:16.420Z,14.77
2023-05-01T13:25:46.437Z,6.17
2023-05-01T13:28:20.138Z,6.87
2023-05-01T13:30:47.715Z,7.00
2023-05-01T13:33:15.145Z,6.60
2023-05-01T13:35:42.520Z,5.00
2023-05-01T13:38:12.052Z,5.50
2023-05-01T13:40:40.598Z,7.40
2023-05-01T13:43:15.560Z,11.60
2023-05-01T13:45:43.519Z,4.90
2023-05-01T13:48:11.568Z,6.10
2023-05-01T13:50:41.553Z,6.73
2023-05-01T13:53:09.186Z,5.13
2023-05-01T13:55:39.844Z,5.53
2023-05-01T13:58:07.154Z,6.87
2023-05-01T14:00:34.543Z,9.53
2023-05-01T14:03:02.848Z,7.63
2023-05-01T14:05:30.131Z,9.47
2023-05-01T14:07:58.341Z,6.07
2023-05-01T14:10:27.594Z,8.83
2023-05-01T14:12:56.810Z,4.40
2023-05-01T14:15:24.346Z,6.30
2023-05-01T14:17:52.341Z,8.20
2023-05-01T14:20:20.793Z,3.80
2023-05-01T14:22:51.061Z,12.60
2023-05-01T14:25:30.591Z,38.90
2023-05-01T14:28:00.218Z,5.20
2023-05-01T14:30:32.610Z,3.90
2023-05-01T14:33:01.439Z,4.80
2023-05-01T14:35:29.969Z,6.70
2023-05-01T14:38:02.612Z,6.20
2023-05-01T14:40:30.403Z,8.13
2023-05-01T14:42:58.336Z,4.90
2023-05-01T14:45:25.572Z,9.93
2023-05-01T14:47:53.028Z,7.87
2023-05-01T14:50:22.383Z,3.70
2023-05-01T14:52:54.588Z,5.50
2023-05-01T14:55:26.099Z,9.63
2023-05-01T14:57:53.441Z,3.67
2023-05-01T15:00:20.905Z,9.57
2023-05-01T15:02:51.391Z,7.60
2023-05-01T15:05:18.824Z,7.83
2023-05-01T15:07:46.545Z,6.70
2023-05-01T15:10:17.355Z,4.87
2023-05-01T15:12:44.898Z,6.93
2023-05-01T15:15:14.854Z,6.43
2023-05-01T15:17:43.886Z,5.60
2023-05-01T15:20:14.195Z,5.30
2023-05-01T15:22:43.104Z,14.03
2023-05-01T15:25:15.635Z,3.80
2023-05-01T15:27:46.557Z,10.27
2023-05-01T15:30:30.204Z,3.93
2023-05-01T15:32:57.555Z,6.60
2023-05-01T15:35:39.513Z,5.60
2023-05-01T15:38:20.824Z,4.13
2023-05-01T15:40:49.480Z,5.87
2023-05-01T15:43:20.449Z,7.00
2023-05-01T15:45:47.838Z,6.50
2023-05-01T15:48:17.997Z,7.23
2023-05-01T15:50:49.114Z,5.17
2023-05-01T15:53:20.273Z,7.07
2023-05-01T15:55:48.189Z,7.63
2023-05-01T15:58:24.050Z,5.43
2023-05-01T16:00:56.159Z,5.73
2023-05-01T16:03:24.030Z,7.47
2023-05-01T16:05:53.154Z,7.40
2023-05-01T16:12:03.569Z,4.80
2023-05-01T16:14:38.691Z,5.93
2023-05-01T16:17:06.409Z,4.87
2023-05-01T16:19:35.887Z,4.90
2023-05-01T16:22:04.082Z,11.10
2023-05-01T16:24:45.879Z,8.17
2023-05-01T16:27:17.703Z,7.40
2023-05-01T16:29:45.313Z,4.73
2023-05-01T16:32:15.936Z,5.27
2023-05-01T16:34:47.439Z,5.27
2023-05-01T16:37:15.072Z,4.57
2023-05-01T16:39:42.378Z,7.10
2023-05-01T16:42:13.237Z,7.57
2023-05-01T16:44:42.642Z,5.50
2023-05-01T16:47:11.988Z,8.13
2023-05-01T16:49:41.447Z,6.07
2023-05-01T16:52:12.784Z,7.73
2023-05-01T16:54:40.687Z,8.77
2023-05-01T16:57:08.009Z,6.10
2023-05-01T16:59:36.948Z,9.13
2023-05-01T17:02:05.022Z,7.23
2023-05-01T17:04:35.461Z,12.40
2023-05-01T17:07:04.529Z,5.73
2023-05-01T17:09:32.125Z,7.23
2023-05-01T17:11:59.452Z,4.77
2023-05-01T17:14:28.256Z,9.03
2023-05-01T17:16:58.029Z,5.47
2023-05-01T17:19:25.643Z,7.53
2023-05-01T17:21:52.913Z,6.60
2023-05-01T17:24:27.440Z,8.67
2023-05-01T17:26:56.579Z,4.63
2023-05-01T17:29:25.708Z,8.13
2023-05-01T17:31:59.320Z,5.90
2023-05-01T17:34:27.537Z,7.80
2023-05-01T17:36:57.191Z,7.80
2023-05-01T17:39:41.220Z,6.10
2023-05-01T17:42:10.552Z,10.60
2023-05-01T17:44:37.860Z,11.93
2023-05-01T17:47:05.117Z,8.93
2023-05-01T17:49:33.351Z,13.70
2023-05-01T17:52:01.729Z,11.70
2023-05-01T17:54:29.110Z,7.37
2023-05-01T17:56:57.474Z,7.57
2023-05-01T17:59:29.710Z,8.20
2023-05-01T18:01:57.805Z,7.33
2023-05-01T18:04:25.205Z,6.10
2023-05-01T18:06:55.391Z,12.83
2023-05-01T18:09:25.404Z,8.00
2023-05-01T18:11:52.729Z,12.60
2023-05-01T18:14:20.530Z,45.40
2023-05-01T18:16:51.992Z,20.17
2023-05-01T18:19:19.442Z,18.10
2023-05-01T18:21:49.984Z,20.43
2023-05-01T18:24:33.181Z,55.80
2023-05-01T18:27:00.526Z,9.63
2023-05-01T18:29:30.642Z,11.70
2023-05-01T18:31:58.010Z,77.67
2023-05-01T18:34:25.448Z,28.63
2023-05-01T18:36:53.950Z,34.67
2023-05-01T18:39:22.285Z,52.20
2023-05-01T18:41:49.828Z,44.03
2023-05-01T18:44:17.328Z,71.97
2023-05-01T18:46:44.991Z,66.30
2023-05-01T18:49:12.341Z,24.83
2023-05-01T18:51:40.237Z,36.77
2023-05-01T18:54:09.164Z,28.27
2023-05-01T18:56:37.150Z,27.33
2023-05-01T18:59:04.444Z,24.03
2023-05-01T19:01:31.794Z,16.17
2023-05-01T19:03:59.347Z,17.83
2023-05-01T19:06:26.693Z,18.80
2023-05-01T19:08:54.077Z,18.67
2023-05-01T19:11:21.387Z,17.00
2023-05-01T19:13:49.395Z,11.23
2023-05-01T19:16:17.184Z,17.53
2023-05-01T19:18:47.021Z,11.30
2023-05-01T19:21:19.485Z,9.13
2023-05-01T19:23:47.614Z,12.33
2023-05-01T19:26:24.770Z,17.63
2023-05-01T19:28:55.341Z,11.37
2023-05-01T19:31:24.660Z,21.10
2023-05-01T19:33:57.940Z,13.03
2023-05-01T19:36:39.536Z,10.43
2023-05-01T19:39:09.784Z,15.33
2023-05-01T19:41:40.721Z,10.57
2023-05-01T19:44:08.788Z,13.43
2023-05-01T19:46:36.215Z,12.10
2023-05-01T19:49:03.675Z,12.97
2023-05-01T19:51:33.296Z,15.30
2023-05-01T19:54:01.072Z,10.73
2023-05-01T19:56:29.401Z,11.57
2023-05-01T19:58:56.964Z,11.10
2023-05-01T20:01:27.784Z,13.53
2023-05-01T20:03:55.433Z,10.97
2023-05-01T20:06:23.125Z,14.17
2023-05-01T20:08:50.635Z,9.87
2023-05-01T20:11:18.203Z,10.97
2023-05-01T20:13:45.587Z,26.20
2023-05-01T20:16:13.035Z,48.77
2023-05-01T20:18:41.002Z,20.97
2023-05-01T20:21:08.391Z,34.57
2023-05-01T20:23:36.094Z,30.10
2023-05-01T20:26:05.449Z,24.60
2023-05-01T20:28:41.751Z,20.03
2023-05-01T20:31:10.228Z,19.73
2023-05-01T20:33:41.807Z,13.83
2023-05-01T20:36:10.037Z,14.50
2023-05-01T20:38:42.332Z,13.20
2023-05-01T20:41:09.806Z,16.90
2023-05-01T20:43:38.427Z,12.77
2023-05-01T20:46:05.785Z,13.80
2023-05-01T20:48:33.359Z,18.90
2023-05-01T20:51:00.677Z,16.33
2023-05-01T20:53:28.627Z,10.50
2023-05-01T20:55:55.898Z,10.97
2023-05-01T20:58:26.058Z,15.43
2023-05-01T21:00:55.163Z,10.90
2023-05-01T21:03:23.046Z,9.83
2023-05-01T21:05:50.825Z,12.90
2023-05-01T21:08:18.828Z,10.57
2023-05-01T21:10:46.888Z,10.83
2023-05-01T21:13:18.612Z,11.50
2023-05-01T21:15:46.258Z,11.27
2023-05-01T21:18:16.926Z,11.50
2023-05-01T21:20:46.245Z,9.60
2023-05-01T21:23:14.352Z,14.57
2023-05-01T21:25:41.934Z,16.20
2023-05-01T21:28:12.940Z,12.03
2023-05-01T21:30:40.448Z,14.30
2023-05-01T21:33:11.853Z,11.70
2023-05-01T21:35:42.321Z,10.77
2023-05-01T21:38:09.776Z,23.63
2023-05-01T21:40:39.459Z,19.63
2023-05-01T21:43:07.319Z,10.17
2023-05-01T21:45:39.558Z,13.87
2023-05-01T21:48:08.022Z,12.73
2023-05-01T21:50:37.489Z,13.47
2023-05-01T21:53:06.352Z,13.17
2023-05-01T21:55:34.117Z,17.07
2023-05-01T21:58:01.813Z,13.10
2023-05-01T22:00:29.588Z,9.57
2023-05-01T22:02:57.957Z,16.57
2023-05-01T22:05:29.255Z,17.47
2023-05-01T22:07:56.776Z,11.70
2023-05-01T22:10:24.081Z,12.47
2023-05-01T22:12:51.955Z,21.80
2023-05-01T22:15:19.716Z,26.13
2023-05-01T22:17:47.437Z,21.10
2023-05-01T22:20:16.330Z,17.17
2023-05-01T22:22:43.653Z,15.47
2023-05-01T22:25:11.589Z,18.23
2023-05-01T22:27:38.902Z,14.43
2023-05-01T22:30:07.018Z,17.37
2023-05-01T22:32:35.011Z,14.30
2023-05-01T22:35:03.179Z,17.73
2023-05-01T22:37:31.333Z,12.23
2023-05-01T22:39:59.011Z,14.00
2023-05-01T22:42:26.692Z,12.10
2023-05-01T22:44:53.988Z,20.43
2023-05-01T22:47:21.243Z,14.70
2023-05-01T22:49:48.494Z,18.20
2023-05-01T22:52:15.948Z,14.70
2023-05-01T22:54:43.853Z,13.83
2023-05-01T22:57:11.090Z,13.20
2023-05-01T22:59:39.763Z,12.83
2023-05-01T23:02:07.390Z,15.17
2023-05-01T23:04:34.702Z,16.60
2023-05-01T23:07:01.977Z,17.30
2023-05-01T23:09:31.332Z,15.07
2023-05-01T23:11:59.319Z,18.67
2023-05-01T23:14:26.568Z,46.13
2023-05-01T23:16:54.001Z,28.93
2023-05-01T23:19:22.447Z,17.60
2023-05-01T23:21:50.815Z,13.60
2023-05-01T23:24:20.379Z,12.90
2023-05-01T23:26:48.114Z,15.83
2023-05-01T23:29:18.071Z,23.43
2023-05-01T23:31:47.303Z,15.03
2023-05-01T23:34:16.994Z,14.57
2023-05-01T23:36:45.908Z,15.53
2023-05-01T23:39:13.808Z,15.47
2023-05-01T23:41:41.444Z,13.00
2023-05-01T23:44:09.368Z,16.10
2023-05-01T23:46:37.882Z,16.83
2023-05-01T23:49:05.782Z,13.20
2023-05-01T23:51:33.136Z,11.37
2023-05-01T23:54:00.629Z,15.97
2023-05-01T23:56:27.947Z,14.40
2023-05-01T23:58:55.283Z,11.97
